sensor_id;sensor_type;location;lat;lon;timestamp;temperature;humidity
53412;DHT22;39307;52.870;13.660;2024-01-15T00:02:12;6.30;55.00
53412;DHT22;39307;52.870;13.660;2024-01-15T00:04:40;8.80;50.00
53412;DHT22;39307;52.870;13.660;2024-01-15T00:07:07;8.80;49.20
53412;DHT22;39307;52.870;13.660;2024-01-15T00:09:35;8.00;50.60
53412;DHT22;39307;52.870;13.660;2024-01-15T00:12:02;7.30;52.10
53412;DHT22;39307;52.870;13.660;2024-01-15T00:14:29;6.80;53.40
53412;DHT22;39307;52.870;13.660;2024-01-15T00:16:55;6.40;54.30
53412;DHT22;39307;52.870;13.660;2024-01-15T00:19:22;6.20;54.90
53412;DHT22;39307;52.870;13.660;2024-01-15T00:21:49;6.00;55.30
53412;DHT22;39307;52.870;13.660;2024-01-15T00:24:16;5.90;55.60
53412;DHT22;39307;52.870;13.660;2024-01-15T00:26:43;5.80;55.90
53412;DHT22;39307;52.870;13.660;2024-01-15T00:29:10;5.70;56.00
53412;DHT22;39307;52.870;13.660;2024-01-15T00:31:37;5.60;56.20
53412;DHT22;39307;52.870;13.660;2024-01-15T00:34:04;5.60;56.20
53412;DHT22;39307;52.870;13.660;2024-01-15T00:36:30;5.60;56.30
53412;DHT22;39307;52.870;13.660;2024-01-15T00:38:57;5.50;56.30
53412;DHT22;39307;52.870;13.660;2024-01-15T00:41:24;5.50;56.40
53412;DHT22;39307;52.870;13.660;2024-01-15T00:43:51;5.50;56.40
53412;DHT22;39307;52.870;13.660;2024-01-15T00:46:18;5.50;56.50
53412;DHT22;39307;52.870;13.660;2024-01-15T00:48:45;5.50;56.50
53412;DHT22;39307;52.870;13.660;2024-01-15T00:51:11;5.50;56.60
53412;DHT22;39307;52.870;13.660;2024-01-15T00:53:38;5.40;56.60
53412;DHT22;39307;52.870;13.660;2024-01-15T00:56:08;5.40;56.60
53412;DHT22;39307;52.870;13.660;2024-01-15T00:58:35;5.30;56.70
53412;DHT22;39307;52.870;13.660;2024-01-15T01:01:02;5.30;56.70
53412;DHT22;39307;52.870;13.660;2024-01-15T01:03:30;5.30;56.80
53412;DHT22;39307;52.870;13.660;2024-01-15T01:05:56;5.30;56.90
53412;DHT22;39307;52.870;13.660;2024-01-15T01:08:23;5.30;56.90
53412;DHT22;39307;52.870;13.660;2024-01-15T01:10:50;5.30;56.90
53412;DHT22;39307;52.870;13.660;2024-01-15T01:13:17;5.30;56.80
53412;DHT22;39307;52.870;13.660;2024-01-15T01:15:44;5.30;56.80
53412;DHT22;39307;52.870;13.660;2024-01-15T01:18:11;5.30;56.70
53412;DHT22;39307;52.870;13.660;2024-01-15T01:20:38;5.30;56.90
53412;DHT22;39307;52.870;13.660;2024-01-15T01:23:04;5.30;56.90
53412;DHT22;39307;52.870;13.660;2024-01-15T01:25:31;5.20;56.90
53412;DHT22;39307;52.870;13.660;2024-01-15T01:27:58;5.20;56.90
53412;DHT22;39307;52.870;13.660;2024-01-15T01:30:25;5.20;56.90
53412;DHT22;39307;52.870;13.660;2024-01-15T01:32:52;5.10;57.00
53412;DHT22;39307;52.870;13.660;2024-01-15T01:35:19;5.10;56.80
53412;DHT22;39307;52.870;13.660;2024-01-15T01:37:46;5.10;57.00
53412;DHT22;39307;52.870;13.660;2024-01-15T01:40:13;5.10;56.90
53412;DHT22;39307;52.870;13.660;2024-01-15T01:42:39;5.10;56.90
53412;DHT22;39307;52.870;13.660;2024-01-15T01:45:07;5.10;57.00
53412;DHT22;39307;52.870;13.660;2024-01-15T01:47:34;5.10;56.90
53412;DHT22;39307;52.870;13.660;2024-01-15T01:50:02;5.10;57.00
53412;DHT22;39307;52.870;13.660;2024-01-15T01:52:29;5.10;56.90
53412;DHT22;39307;52.870;13.660;2024-01-15T01:54:57;5.10;57.10
53412;DHT22;39307;52.870;13.660;2024-01-15T01:57:25;5.00;56.90
53412;DHT22;39307;52.870;13.660;2024-01-15T01:59:53;5.00;57.20
53412;DHT22;39307;52.870;13.660;2024-01-15T02:02:21;5.00;57.10
53412;DHT22;39307;52.870;13.660;2024-01-15T02:04:49;5.00;57.00
53412;DHT22;39307;52.870;13.660;2024-01-15T02:07:16;5.00;57.20
53412;DHT22;39307;52.870;13.660;2024-01-15T02:09:44;5.00;57.20
53412;DHT22;39307;52.870;13.660;2024-01-15T02:12:11;5.00;57.10
53412;DHT22;39307;52.870;13.660;2024-01-15T02:14:39;5.00;57.10
53412;DHT22;39307;52.870;13.660;2024-01-15T02:17:06;5.00;57.20
53412;DHT22;39307;52.870;13.660;2024-01-15T02:19:33;5.00;57.10
53412;DHT22;39307;52.870;13.660;2024-01-15T02:22:00;5.00;57.10
53412;DHT22;39307;52.870;13.660;2024-01-15T02:24:27;5.00;57.20
53412;DHT22;39307;52.870;13.660;2024-01-15T02:26:54;5.00;57.20
53412;DHT22;39307;52.870;13.660;2024-01-15T02:29:21;5.00;57.20
53412;DHT22;39307;52.870;13.660;2024-01-15T02:31:47;5.00;57.30
53412;DHT22;39307;52.870;13.660;2024-01-15T02:34:14;7.30;53.20
53412;DHT22;39307;52.870;13.660;2024-01-15T02:36:41;9.20;49.00
53412;DHT22;39307;52.870;13.660;2024-01-15T02:39:08;8.60;49.50
53412;DHT22;39307;52.870;13.660;2024-01-15T02:41:35;7.80;51.20
53412;DHT22;39307;52.870;13.660;2024-01-15T02:44:02;7.20;52.60
53412;DHT22;39307;52.870;13.660;2024-01-15T02:46:29;6.70;53.80
53412;DHT22;39307;52.870;13.660;2024-01-15T02:48:56;6.40;54.70
53412;DHT22;39307;52.870;13.660;2024-01-15T02:51:22;6.10;55.20
53412;DHT22;39307;52.870;13.660;2024-01-15T02:53:49;6.00;55.60
53412;DHT22;39307;52.870;13.660;2024-01-15T02:56:16;5.80;55.90
53412;DHT22;39307;52.870;13.660;2024-01-15T02:58:43;5.70;56.20
53412;DHT22;39307;52.870;13.660;2024-01-15T03:01:10;5.70;56.30
53412;DHT22;39307;52.870;13.660;2024-01-15T03:03:37;5.60;56.40
53412;DHT22;39307;52.870;13.660;2024-01-15T03:06:06;5.60;56.50
53412;DHT22;39307;52.870;13.660;2024-01-15T03:08:32;5.60;56.50
53412;DHT22;39307;52.870;13.660;2024-01-15T03:10:59;5.50;56.60
53412;DHT22;39307;52.870;13.660;2024-01-15T03:13:26;5.50;56.60
53412;DHT22;39307;52.870;13.660;2024-01-15T03:15:53;5.50;56.70
53412;DHT22;39307;52.870;13.660;2024-01-15T03:18:21;5.50;56.70
53412;DHT22;39307;52.870;13.660;2024-01-15T03:20:48;5.50;56.80
53412;DHT22;39307;52.870;13.660;2024-01-15T03:23:15;5.40;56.90
53412;DHT22;39307;52.870;13.660;2024-01-15T03:25:42;5.40;56.90
53412;DHT22;39307;52.870;13.660;2024-01-15T03:28:09;5.40;56.90
53412;DHT22;39307;52.870;13.660;2024-01-15T03:30:36;5.30;57.00
53412;DHT22;39307;52.870;13.660;2024-01-15T03:33:03;5.30;57.20
53412;DHT22;39307;52.870;13.660;2024-01-15T03:35:30;5.30;57.10
53412;DHT22;39307;52.870;13.660;2024-01-15T03:37:57;5.30;57.10
53412;DHT22;39307;52.870;13.660;2024-01-15T03:40:24;5.30;57.10
53412;DHT22;39307;52.870;13.660;2024-01-15T03:42:52;5.30;57.30
53412;DHT22;39307;52.870;13.660;2024-01-15T03:45:19;5.30;57.00
53412;DHT22;39307;52.870;13.660;2024-01-15T03:47:46;5.30;57.10
53412;DHT22;39307;52.870;13.660;2024-01-15T03:50:13;5.30;57.20
53412;DHT22;39307;52.870;13.660;2024-01-15T03:52:40;5.20;57.20
53412;DHT22;39307;52.870;13.660;2024-01-15T03:55:07;5.20;57.20
53412;DHT22;39307;52.870;13.660;2024-01-15T03:57:34;5.20;57.10
53412;DHT22;39307;52.870;13.660;2024-01-15T04:00:01;5.20;57.10
53412;DHT22;39307;52.870;13.660;2024-01-15T04:02:28;5.10;57.10
53412;DHT22;39307;52.870;13.660;2024-01-15T04:04:55;5.10;57.10
53412;DHT22;39307;52.870;13.660;2024-01-15T04:07:22;5.10;57.10
53412;DHT22;39307;52.870;13.660;2024-01-15T04:09:48;5.10;57.10
53412;DHT22;39307;52.870;13.660;2024-01-15T04:12:15;5.10;57.10
53412;DHT22;39307;52.870;13.660;2024-01-15T04:14:42;5.10;57.10
53412;DHT22;39307;52.870;13.660;2024-01-15T04:17:09;5.10;57.30
53412;DHT22;39307;52.870;13.660;2024-01-15T04:19:36;5.00;57.30
53412;DHT22;39307;52.870;13.660;2024-01-15T04:22:03;5.10;57.20
53412;DHT22;39307;52.870;13.660;2024-01-15T04:24:32;5.00;57.20
53412;DHT22;39307;52.870;13.660;2024-01-15T04:26:58;5.00;57.30
53412;DHT22;39307;52.870;13.660;2024-01-15T04:29:25;5.00;57.30
53412;DHT22;39307;52.870;13.660;2024-01-15T04:31:53;5.00;57.20
53412;DHT22;39307;52.870;13.660;2024-01-15T04:34:20;5.00;57.30
53412;DHT22;39307;52.870;13.660;2024-01-15T04:36:47;5.00;57.30
53412;DHT22;39307;52.870;13.660;2024-01-15T04:39:14;5.00;57.30
53412;DHT22;39307;52.870;13.660;2024-01-15T04:41:41;5.00;57.40
53412;DHT22;39307;52.870;13.660;2024-01-15T04:44:08;5.00;57.40
53412;DHT22;39307;52.870;13.660;2024-01-15T04:46:34;5.00;57.30
53412;DHT22;39307;52.870;13.660;2024-01-15T04:49:01;5.00;57.40
53412;DHT22;39307;52.870;13.660;2024-01-15T04:51:28;5.00;57.40
53412;DHT22;39307;52.870;13.660;2024-01-15T04:53:55;5.20;57.20
53412;DHT22;39307;52.870;13.660;2024-01-15T04:56:22;7.90;52.30
53412;DHT22;39307;52.870;13.660;2024-01-15T04:58:49;9.10;49.20
53412;DHT22;39307;52.870;13.660;2024-01-15T05:01:16;8.40;50.20
53412;DHT22;39307;52.870;13.660;2024-01-15T05:03:43;7.60;51.80
53412;DHT22;39307;52.870;13.660;2024-01-15T05:06:10;7.00;53.10
53412;DHT22;39307;52.870;13.660;2024-01-15T05:08:37;6.60;54.20
53412;DHT22;39307;52.870;13.660;2024-01-15T05:11:03;6.30;55.00
53412;DHT22;39307;52.870;13.660;2024-01-15T05:13:30;6.10;55.50
53412;DHT22;39307;52.870;13.660;2024-01-15T05:15:57;5.90;55.80
53412;DHT22;39307;52.870;13.660;2024-01-15T05:18:24;5.80;56.20
53412;DHT22;39307;52.870;13.660;2024-01-15T05:20:51;5.70;56.30
53412;DHT22;39307;52.870;13.660;2024-01-15T05:23:18;5.70;56.50
53412;DHT22;39307;52.870;13.660;2024-01-15T05:25:45;5.60;56.60
53412;DHT22;39307;52.870;13.660;2024-01-15T05:28:12;5.60;56.70
53412;DHT22;39307;52.870;13.660;2024-01-15T05:30:39;5.50;56.80
53412;DHT22;39307;52.870;13.660;2024-01-15T05:33:06;5.50;56.80
53412;DHT22;39307;52.870;13.660;2024-01-15T05:35:33;5.50;56.90
53412;DHT22;39307;52.870;13.660;2024-01-15T05:38:01;5.50;56.90
53412;DHT22;39307;52.870;13.660;2024-01-15T05:40:28;5.50;56.90
53412;DHT22;39307;52.870;13.660;2024-01-15T05:42:54;5.50;56.90
53412;DHT22;39307;52.870;13.660;2024-01-15T05:45:21;5.40;56.90
53412;DHT22;39307;52.870;13.660;2024-01-15T05:47:48;5.40;57.00
53412;DHT22;39307;52.870;13.660;2024-01-15T05:50:15;5.40;56.90
53412;DHT22;39307;52.870;13.660;2024-01-15T05:52:42;5.30;57.10
53412;DHT22;39307;52.870;13.660;2024-01-15T05:55:09;5.30;57.00
53412;DHT22;39307;52.870;13.660;2024-01-15T05:57:36;5.30;57.10
53412;DHT22;39307;52.870;13.660;2024-01-15T06:00:04;5.30;57.20
53412;DHT22;39307;52.870;13.660;2024-01-15T06:02:31;5.30;57.10
53412;DHT22;39307;52.870;13.660;2024-01-15T06:04:58;5.30;57.20
53412;DHT22;39307;52.870;13.660;2024-01-15T06:07:25;5.30;57.30
53412;DHT22;39307;52.870;13.660;2024-01-15T06:09:52;5.30;57.20
53412;DHT22;39307;52.870;13.660;2024-01-15T06:12:19;5.30;57.30
53412;DHT22;39307;52.870;13.660;2024-01-15T06:14:46;5.30;57.30
53412;DHT22;39307;52.870;13.660;2024-01-15T06:17:13;5.20;57.10
53412;DHT22;39307;52.870;13.660;2024-01-15T06:19:40;5.20;57.20
53412;DHT22;39307;52.870;13.660;2024-01-15T06:22:07;5.20;57.10
53412;DHT22;39307;52.870;13.660;2024-01-15T06:24:34;5.10;57.30
53412;DHT22;39307;52.870;13.660;2024-01-15T06:27:01;5.10;57.30
53412;DHT22;39307;52.870;13.660;2024-01-15T06:29:28;5.10;57.30
53412;DHT22;39307;52.870;13.660;2024-01-15T06:31:55;5.10;57.20
53412;DHT22;39307;52.870;13.660;2024-01-15T06:34:22;5.10;57.20
53412;DHT22;39307;52.870;13.660;2024-01-15T06:36:49;5.10;57.30
53412;DHT22;39307;52.870;13.660;2024-01-15T06:39:15;5.10;57.30
53412;DHT22;39307;52.870;13.660;2024-01-15T06:41:42;5.00;57.40
53412;DHT22;39307;52.870;13.660;2024-01-15T06:44:12;5.00;57.30
53412;DHT22;39307;52.870;13.660;2024-01-15T06:46:43;5.00;57.30
53412;DHT22;39307;52.870;13.660;2024-01-15T06:49:10;5.00;57.30
53412;DHT22;39307;52.870;13.660;2024-01-15T06:51:38;5.00;57.30
53412;DHT22;39307;52.870;13.660;2024-01-15T06:54:05;5.00;57.40
53412;DHT22;39307;52.870;13.660;2024-01-15T06:56:32;5.00;57.50
53412;DHT22;39307;52.870;13.660;2024-01-15T06:58:59;5.00;57.40
53412;DHT22;39307;52.870;13.660;2024-01-15T07:01:26;5.00;57.60
53412;DHT22;39307;52.870;13.660;2024-01-15T07:03:53;5.00;57.50
53412;DHT22;39307;52.870;13.660;2024-01-15T07:06:20;5.00;57.40
53412;DHT22;39307;52.870;13.660;2024-01-15T07:08:47;5.00;57.60
53412;DHT22;39307;52.870;13.660;2024-01-15T07:11:15;5.00;57.60
53412;DHT22;39307;52.870;13.660;2024-01-15T07:13:42;5.00;57.50
53412;DHT22;39307;52.870;13.660;2024-01-15T07:16:09;5.00;57.60
53412;DHT22;39307;52.870;13.660;2024-01-15T07:18:35;5.20;57.40
53412;DHT22;39307;52.870;13.660;2024-01-15T07:21:02;7.80;52.70
53412;DHT22;39307;52.870;13.660;2024-01-15T07:23:31;9.00;49.50
53412;DHT22;39307;52.870;13.660;2024-01-15T07:25:58;8.30;50.40
53412;DHT22;39307;52.870;13.660;2024-01-15T07:28:25;7.50;52.10
53412;DHT22;39307;52.870;13.660;2024-01-15T07:30:52;7.00;53.40
53412;DHT22;39307;52.870;13.660;2024-01-15T07:33:19;6.60;54.40
53412;DHT22;39307;52.870;13.660;2024-01-15T07:35:46;6.30;55.10
53412;DHT22;39307;52.870;13.660;2024-01-15T07:38:13;6.00;55.60
53412;DHT22;39307;52.870;13.660;2024-01-15T07:40:39;5.90;56.10
53412;DHT22;39307;52.870;13.660;2024-01-15T07:43:06;5.80;56.40
53412;DHT22;39307;52.870;13.660;2024-01-15T07:45:33;5.70;56.50
53412;DHT22;39307;52.870;13.660;2024-01-15T07:48:00;5.70;56.60
53412;DHT22;39307;52.870;13.660;2024-01-15T07:50:27;5.60;56.80
53412;DHT22;39307;52.870;13.660;2024-01-15T07:52:54;5.50;56.80
53412;DHT22;39307;52.870;13.660;2024-01-15T07:55:21;5.50;56.90
53412;DHT22;39307;52.870;13.660;2024-01-15T07:57:48;5.50;57.00
53412;DHT22;39307;52.870;13.660;2024-01-15T08:00:15;5.50;57.00
53412;DHT22;39307;52.870;13.660;2024-01-15T08:02:43;5.50;57.00
53412;DHT22;39307;52.870;13.660;2024-01-15T08:05:09;5.50;57.00
53412;DHT22;39307;52.870;13.660;2024-01-15T08:07:36;5.40;57.10
53412;DHT22;39307;52.870;13.660;2024-01-15T08:10:03;5.40;57.20
53412;DHT22;39307;52.870;13.660;2024-01-15T08:12:30;5.40;57.20
53412;DHT22;39307;52.870;13.660;2024-01-15T08:14:57;5.30;57.20
53412;DHT22;39307;52.870;13.660;2024-01-15T08:17:23;5.30;57.20
53412;DHT22;39307;52.870;13.660;2024-01-15T08:19:50;5.30;57.20
53412;DHT22;39307;52.870;13.660;2024-01-15T08:22:17;5.30;57.30
53412;DHT22;39307;52.870;13.660;2024-01-15T08:24:44;5.30;57.30
53412;DHT22;39307;52.870;13.660;2024-01-15T08:27:11;5.30;57.20
53412;DHT22;39307;52.870;13.660;2024-01-15T08:29:38;5.30;57.20
53412;DHT22;39307;52.870;13.660;2024-01-15T08:32:05;5.30;57.30
53412;DHT22;39307;52.870;13.660;2024-01-15T08:34:32;5.30;57.30
53412;DHT22;39307;52.870;13.660;2024-01-15T08:36:59;5.20;57.50
53412;DHT22;39307;52.870;13.660;2024-01-15T08:39:26;5.20;57.40
53412;DHT22;39307;52.870;13.660;2024-01-15T08:41:52;5.20;57.40
53412;DHT22;39307;52.870;13.660;2024-01-15T08:44:19;5.10;57.50
53412;DHT22;39307;52.870;13.660;2024-01-15T08:46:46;5.10;57.30
53412;DHT22;39307;52.870;13.660;2024-01-15T08:49:13;5.10;57.40
53412;DHT22;39307;52.870;13.660;2024-01-15T08:51:40;5.10;57.40
53412;DHT22;39307;52.870;13.660;2024-01-15T08:54:07;5.10;57.40
53412;DHT22;39307;52.870;13.660;2024-01-15T08:56:33;5.10;57.50
53412;DHT22;39307;52.870;13.660;2024-01-15T08:59:00;5.10;57.50
53412;DHT22;39307;52.870;13.660;2024-01-15T09:01:27;5.10;57.50
53412;DHT22;39307;52.870;13.660;2024-01-15T09:03:54;5.00;57.40
53412;DHT22;39307;52.870;13.660;2024-01-15T09:06:21;5.00;57.40
53412;DHT22;39307;52.870;13.660;2024-01-15T09:08:48;5.00;57.50
53412;DHT22;39307;52.870;13.660;2024-01-15T09:11:15;5.00;57.40
53412;DHT22;39307;52.870;13.660;2024-01-15T09:13:42;5.00;57.50
53412;DHT22;39307;52.870;13.660;2024-01-15T09:16:09;5.00;57.50
53412;DHT22;39307;52.870;13.660;2024-01-15T09:18:36;5.00;57.40
53412;DHT22;39307;52.870;13.660;2024-01-15T09:21:03;5.00;57.50
53412;DHT22;39307;52.870;13.660;2024-01-15T09:23:30;5.00;57.50
53412;DHT22;39307;52.870;13.660;2024-01-15T09:25:57;5.00;57.60
53412;DHT22;39307;52.870;13.660;2024-01-15T09:28:24;5.00;57.50
53412;DHT22;39307;52.870;13.660;2024-01-15T09:30:51;5.00;57.70
53412;DHT22;39307;52.870;13.660;2024-01-15T09:33:18;5.00;57.60
53412;DHT22;39307;52.870;13.660;2024-01-15T09:35:45;5.00;57.70
53412;DHT22;39307;52.870;13.660;2024-01-15T09:38:11;5.00;57.70
53412;DHT22;39307;52.870;13.660;2024-01-15T09:40:39;4.90;57.60
53412;DHT22;39307;52.870;13.660;2024-01-15T09:43:12;5.30;57.50
53412;DHT22;39307;52.870;13.660;2024-01-15T09:45:40;8.10;52.00
53412;DHT22;39307;52.870;13.660;2024-01-15T09:48:07;9.00;49.40
53412;DHT22;39307;52.870;13.660;2024-01-15T09:50:34;8.30;50.60
53412;DHT22;39307;52.870;13.660;2024-01-15T09:53:01;7.50;52.20
53412;DHT22;39307;52.870;13.660;2024-01-15T09:55:29;6.90;53.50
53412;DHT22;39307;52.870;13.660;2024-01-15T09:57:57;6.50;54.60
53412;DHT22;39307;52.870;13.660;2024-01-15T10:00:26;6.20;55.30
53412;DHT22;39307;52.870;13.660;2024-01-15T10:02:54;6.00;55.80
53412;DHT22;39307;52.870;13.660;2024-01-15T10:05:21;5.90;56.20
53412;DHT22;39307;52.870;13.660;2024-01-15T10:07:48;5.80;56.50
53412;DHT22;39307;52.870;13.660;2024-01-15T10:10:16;5.70;56.70
53412;DHT22;39307;52.870;13.660;2024-01-15T10:12:43;5.60;56.90
53412;DHT22;39307;52.870;13.660;2024-01-15T10:15:10;5.60;57.00
53412;DHT22;39307;52.870;13.660;2024-01-15T10:17:38;5.50;57.00
53412;DHT22;39307;52.870;13.660;2024-01-15T10:20:10;5.50;57.00
53412;DHT22;39307;52.870;13.660;2024-01-15T10:22:41;5.50;57.20
53412;DHT22;39307;52.870;13.660;2024-01-15T10:25:11;5.50;57.20
53412;DHT22;39307;52.870;13.660;2024-01-15T10:27:41;5.50;57.20
53412;DHT22;39307;52.870;13.660;2024-01-15T10:30:12;5.40;57.20
53412;DHT22;39307;52.870;13.660;2024-01-15T10:32:39;5.40;57.20
53412;DHT22;39307;52.870;13.660;2024-01-15T10:35:07;5.40;57.30
53412;DHT22;39307;52.870;13.660;2024-01-15T10:37:34;5.30;57.30
53412;DHT22;39307;52.870;13.660;2024-01-15T10:40:04;5.30;57.40
53412;DHT22;39307;52.870;13.660;2024-01-15T10:42:31;5.30;57.30
53412;DHT22;39307;52.870;13.660;2024-01-15T10:44:58;5.30;57.40
53412;DHT22;39307;52.870;13.660;2024-01-15T10:47:25;5.30;57.40
53412;DHT22;39307;52.870;13.660;2024-01-15T10:49:52;5.30;57.40
53412;DHT22;39307;52.870;13.660;2024-01-15T10:52:19;5.30;57.40
53412;DHT22;39307;52.870;13.660;2024-01-15T10:54:46;5.30;57.50
53412;DHT22;39307;52.870;13.660;2024-01-15T10:57:15;5.30;57.60
53412;DHT22;39307;52.870;13.660;2024-01-15T10:59:43;5.20;57.60
53412;DHT22;39307;52.870;13.660;2024-01-15T11:02:09;5.20;57.50
53412;DHT22;39307;52.870;13.660;2024-01-15T11:04:37;5.20;57.60
53412;DHT22;39307;52.870;13.660;2024-01-15T11:07:05;5.10;57.50
53412;DHT22;39307;52.870;13.660;2024-01-15T11:09:34;5.10;57.50
53412;DHT22;39307;52.870;13.660;2024-01-15T11:12:12;5.10;57.50
53412;DHT22;39307;52.870;13.660;2024-01-15T11:14:47;5.10;57.60
53412;DHT22;39307;52.870;13.660;2024-01-15T11:17:16;5.10;57.60
53412;DHT22;39307;52.870;13.660;2024-01-15T11:19:45;5.10;57.70
53412;DHT22;39307;52.870;13.660;2024-01-15T11:25:01;5.10;57.70
53412;DHT22;39307;52.870;13.660;2024-01-15T11:27:47;5.00;57.70
53412;DHT22;39307;52.870;13.660;2024-01-15T11:30:15;5.00;57.70
53412;DHT22;39307;52.870;13.660;2024-01-15T11:32:42;5.00;57.70
53412;DHT22;39307;52.870;13.660;2024-01-15T11:35:10;5.00;57.80
53412;DHT22;39307;52.870;13.660;2024-01-15T11:42:59;5.00;57.90
53412;DHT22;39307;52.870;13.660;2024-01-15T11:45:27;5.00;57.80
53412;DHT22;39307;52.870;13.660;2024-01-15T11:48:10;5.00;57.80
53412;DHT22;39307;52.870;13.660;2024-01-15T11:50:46;5.00;57.90
53412;DHT22;39307;52.870;13.660;2024-01-15T11:53:27;5.00;57.90
53412;DHT22;39307;52.870;13.660;2024-01-15T11:56:23;5.00;57.90
53412;DHT22;39307;52.870;13.660;2024-01-15T11:58:50;5.00;57.80
53412;DHT22;39307;52.870;13.660;2024-01-15T12:01:17;5.00;57.70
53412;DHT22;39307;52.870;13.660;2024-01-15T12:03:44;4.90;57.80
53412;DHT22;39307;52.870;13.660;2024-01-15T12:06:14;5.50;57.20
53412;DHT22;39307;52.870;13.660;2024-01-15T12:08:41;8.30;51.70
53412;DHT22;39307;52.870;13.660;2024-01-15T12:11:13;9.00;49.60
53412;DHT22;39307;52.870;13.660;2024-01-15T12:13:40;8.10;50.90
53412;DHT22;39307;52.870;13.660;2024-01-15T12:16:07;7.40;52.60
53412;DHT22;39307;52.870;13.660;2024-01-15T12:18:34;6.80;53.90
53412;DHT22;39307;52.870;13.660;2024-01-15T12:21:01;6.50;54.90
53412;DHT22;39307;52.870;13.660;2024-01-15T12:23:28;6.20;55.60
53412;DHT22;39307;52.870;13.660;2024-01-15T12:25:55;6.00;56.00
53412;DHT22;39307;52.870;13.660;2024-01-15T12:28:21;5.80;56.40
53412;DHT22;39307;52.870;13.660;2024-01-15T12:30:49;5.80;56.60
53412;DHT22;39307;52.870;13.660;2024-01-15T12:33:18;5.70;56.90
53412;DHT22;39307;52.870;13.660;2024-01-15T12:35:45;5.60;57.10
53412;DHT22;39307;52.870;13.660;2024-01-15T12:38:12;5.60;57.10
53412;DHT22;39307;52.870;13.660;2024-01-15T12:40:39;5.50;57.20
53412;DHT22;39307;52.870;13.660;2024-01-15T12:43:06;5.50;57.30
53412;DHT22;39307;52.870;13.660;2024-01-15T12:45:33;5.50;57.30
53412;DHT22;39307;52.870;13.660;2024-01-15T12:48:01;5.50;57.40
53412;DHT22;39307;52.870;13.660;2024-01-15T12:50:28;5.50;57.40
53412;DHT22;39307;52.870;13.660;2024-01-15T12:52:55;5.50;57.40
53412;DHT22;39307;52.870;13.660;2024-01-15T12:55:21;5.40;57.40
53412;DHT22;39307;52.870;13.660;2024-01-15T12:57:49;5.30;57.50
53412;DHT22;39307;52.870;13.660;2024-01-15T13:00:16;5.30;57.50
53412;DHT22;39307;52.870;13.660;2024-01-15T13:02:43;5.30;57.60
53412;DHT22;39307;52.870;13.660;2024-01-15T13:05:11;5.30;57.50
53412;DHT22;39307;52.870;13.660;2024-01-15T13:07:38;5.30;57.70
53412;DHT22;39307;52.870;13.660;2024-01-15T13:10:06;5.30;57.80
53412;DHT22;39307;52.870;13.660;2024-01-15T13:12:34;5.30;57.80
53412;DHT22;39307;52.870;13.660;2024-01-15T13:15:01;5.30;57.80
53412;DHT22;39307;52.870;13.660;2024-01-15T13:17:29;5.30;57.80
53412;DHT22;39307;52.870;13.660;2024-01-15T13:19:56;5.20;57.80
53412;DHT22;39307;52.870;13.660;2024-01-15T13:22:23;5.20;57.90
53412;DHT22;39307;52.870;13.660;2024-01-15T13:24:49;5.20;57.80
53412;DHT22;39307;52.870;13.660;2024-01-15T13:27:16;5.10;57.80
53412;DHT22;39307;52.870;13.660;2024-01-15T13:29:43;5.10;57.70
53412;DHT22;39307;52.870;13.660;2024-01-15T13:32:14;5.10;57.80
53412;DHT22;39307;52.870;13.660;2024-01-15T13:34:50;5.10;57.80
53412;DHT22;39307;52.870;13.660;2024-01-15T13:37:17;5.10;57.80
53412;DHT22;39307;52.870;13.660;2024-01-15T13:39:44;5.10;57.90
53412;DHT22;39307;52.870;13.660;2024-01-15T13:42:10;5.10;57.90
53412;DHT22;39307;52.870;13.660;2024-01-15T13:44:37;5.10;57.80
53412;DHT22;39307;52.870;13.660;2024-01-15T13:47:04;5.10;57.80
53412;DHT22;39307;52.870;13.660;2024-01-15T13:49:31;5.10;58.00
53412;DHT22;39307;52.870;13.660;2024-01-15T13:51:58;5.00;57.80
53412;DHT22;39307;52.870;13.660;2024-01-15T13:54:25;5.00;57.80
53412;DHT22;39307;52.870;13.660;2024-01-15T13:56:52;5.00;57.80
53412;DHT22;39307;52.870;13.660;2024-01-15T13:59:18;5.00;57.90
53412;DHT22;39307;52.870;13.660;2024-01-15T14:01:45;5.00;57.80
53412;DHT22;39307;52.870;13.660;2024-01-15T14:04:12;5.00;57.80
53412;DHT22;39307;52.870;13.660;2024-01-15T14:06:39;5.00;57.90
53412;DHT22;39307;52.870;13.660;2024-01-15T14:09:06;5.00;57.90
53412;DHT22;39307;52.870;13.660;2024-01-15T14:11:33;5.00;57.80
53412;DHT22;39307;52.870;13.660;2024-01-15T14:14:00;5.00;57.90
53412;DHT22;39307;52.870;13.660;2024-01-15T14:16:27;5.00;57.90
53412;DHT22;39307;52.870;13.660;2024-01-15T14:18:54;5.00;58.00
53412;DHT22;39307;52.870;13.660;2024-01-15T14:21:20;5.00;57.90
53412;DHT22;39307;52.870;13.660;2024-01-15T14:23:47;5.00;57.90
53412;DHT22;39307;52.870;13.660;2024-01-15T14:26:14;4.90;58.00
53412;DHT22;39307;52.870;13.660;2024-01-15T14:28:41;4.90;58.00
53412;DHT22;39307;52.870;13.660;2024-01-15T14:31:08;4.90;57.90
53412;DHT22;39307;52.870;13.660;2024-01-15T14:33:35;5.90;56.60
53412;DHT22;39307;52.870;13.660;2024-01-15T14:36:01;8.60;51.00
53412;DHT22;39307;52.870;13.660;2024-01-15T14:38:28;8.80;49.80
53412;DHT22;39307;52.870;13.660;2024-01-15T14:40:56;8.00;51.30
53412;DHT22;39307;52.870;13.660;2024-01-15T14:43:22;7.20;52.80
53412;DHT22;39307;52.870;13.660;2024-01-15T14:45:49;6.80;54.10
53412;DHT22;39307;52.870;13.660;2024-01-15T14:48:16;6.40;55.10
53412;DHT22;39307;52.870;13.660;2024-01-15T14:50:43;6.10;55.70
53412;DHT22;39307;52.870;13.660;2024-01-15T14:53:10;6.00;56.10
53412;DHT22;39307;52.870;13.660;2024-01-15T14:55:37;5.80;56.40
53412;DHT22;39307;52.870;13.660;2024-01-15T14:58:03;5.70;56.70
53412;DHT22;39307;52.870;13.660;2024-01-15T15:00:30;5.70;56.80
53412;DHT22;39307;52.870;13.660;2024-01-15T15:02:57;5.60;56.90
53412;DHT22;39307;52.870;13.660;2024-01-15T15:05:24;5.50;57.10
53412;DHT22;39307;52.870;13.660;2024-01-15T15:07:51;5.50;57.10
53412;DHT22;39307;52.870;13.660;2024-01-15T15:10:18;5.50;57.10
53412;DHT22;39307;52.870;13.660;2024-01-15T15:12:45;5.50;57.20
53412;DHT22;39307;52.870;13.660;2024-01-15T15:15:12;5.50;57.20
53412;DHT22;39307;52.870;13.660;2024-01-15T15:17:39;5.40;57.20
53412;DHT22;39307;52.870;13.660;2024-01-15T15:20:07;5.40;57.20
53412;DHT22;39307;52.870;13.660;2024-01-15T15:22:34;5.40;57.20
53412;DHT22;39307;52.870;13.660;2024-01-15T15:25:01;5.30;57.30
53412;DHT22;39307;52.870;13.660;2024-01-15T15:27:28;5.30;57.30
53412;DHT22;39307;52.870;13.660;2024-01-15T15:29:55;5.30;57.30
53412;DHT22;39307;52.870;13.660;2024-01-15T15:32:21;5.30;57.30
53412;DHT22;39307;52.870;13.660;2024-01-15T15:34:48;5.30;57.30
53412;DHT22;39307;52.870;13.660;2024-01-15T15:37:15;5.30;57.30
53412;DHT22;39307;52.870;13.660;2024-01-15T15:39:42;5.30;57.30